createdAt,value
2022-12-09T00:00:07.576Z,39.40
2022-12-09T00:05:31.032Z,41.27
2022-12-09T00:10:34.718Z,38.57
2022-12-09T00:15:42.776Z,39.43
2022-12-09T00:20:46.092Z,38.93
2022-12-09T00:25:49.741Z,42.77
2022-12-09T00:30:53.458Z,35.67
2022-12-09T00:35:57.407Z,33.13
2022-12-09T00:41:00.967Z,44.50
2022-12-09T00:46:05.320Z,45.57
2022-12-09T00:51:11.234Z,41.63
2022-12-09T00:56:15.344Z,48.20
2022-12-09T01:01:19.282Z,54.40
2022-12-09T01:06:25.041Z,53.23
2022-12-09T01:11:30.165Z,45.80
2022-12-09T01:16:35.169Z,46.20
2022-12-09T01:21:38.554Z,44.87
2022-12-09T01:26:41.751Z,43.17
2022-12-09T01:31:45.225Z,58.83
2022-12-09T01:36:49.043Z,57.10
2022-12-09T01:41:52.907Z,63.43
2022-12-09T01:46:58.367Z,52.47
2022-12-09T01:52:13.639Z,47.30
2022-12-09T01:57:17.473Z,44.33
2022-12-09T02:02:22.170Z,47.17
2022-12-09T02:07:27.405Z,51.00
2022-12-09T02:12:52.386Z,48.53
2022-12-09T02:18:00.641Z,47.53
2022-12-09T02:23:11.205Z,43.77
2022-12-09T02:28:51.116Z,41.37
2022-12-09T02:34:18.119Z,48.67
2022-12-09T02:39:30.711Z,40.27
2022-12-09T02:44:36.521Z,43.00
2022-12-09T02:49:41.378Z,38.70
2022-12-09T02:54:45.298Z,48.80
2022-12-09T02:59:48.760Z,42.07
2022-12-09T03:05:21.597Z,45.60
2022-12-09T03:10:56.818Z,46.90
2022-12-09T03:16:10.028Z,42.23
2022-12-09T03:21:16.531Z,45.77
2022-12-09T03:26:20.156Z,41.33
2022-12-09T03:31:28.703Z,41.23
2022-12-09T03:36:40.986Z,47.23
2022-12-09T03:41:54.301Z,50.77
2022-12-09T03:46:58.635Z,46.07
2022-12-09T03:52:31.247Z,51.77
2022-12-09T03:57:38.761Z,50.77
2022-12-09T04:02:42.669Z,56.70
2022-12-09T04:07:46.394Z,69.07
2022-12-09T04:12:49.639Z,65.80
2022-12-09T04:17:53.299Z,59.70
2022-12-09T04:22:57.287Z,69.47
2022-12-09T04:28:01.153Z,73.00
2022-12-09T04:33:04.712Z,64.60
2022-12-09T04:38:08.041Z,68.77
2022-12-09T04:43:12.053Z,64.53
2022-12-09T04:48:15.508Z,65.40
2022-12-09T04:53:18.863Z,64.07
2022-12-09T04:58:22.343Z,59.70
2022-12-09T05:03:26.189Z,61.20
2022-12-09T05:08:31.701Z,59.90
2022-12-09T05:13:35.889Z,53.50
2022-12-09T05:18:39.600Z,48.77
2022-12-09T05:23:43.745Z,54.73
2022-12-09T05:28:47.660Z,62.97
2022-12-09T05:33:52.652Z,64.97
2022-12-09T05:38:57.179Z,59.77
2022-12-09T05:44:00.615Z,59.70
2022-12-09T05:49:04.797Z,63.90
2022-12-09T05:54:09.012Z,54.87
2022-12-09T05:59:12.692Z,59.47
2022-12-09T06:04:16.459Z,53.77
2022-12-09T06:09:19.837Z,64.33
2022-12-09T06:14:23.717Z,55.50
2022-12-09T06:19:26.950Z,55.23
2022-12-09T06:24:31.398Z,54.27
2022-12-09T06:29:34.855Z,54.20
2022-12-09T06:34:38.099Z,66.53
2022-12-09T06:39:41.961Z,66.37
2022-12-09T06:44:45.450Z,60.07
2022-12-09T06:49:49.396Z,65.97
2022-12-09T06:54:53.122Z,60.33
2022-12-09T06:59:56.860Z,74.13
2022-12-09T07:05:00.928Z,66.57
2022-12-09T07:10:08.924Z,85.03
2022-12-09T07:15:13.690Z,72.80
2022-12-09T07:20:18.107Z,81.50
2022-12-09T07:25:21.624Z,75.57
2022-12-09T07:30:25.601Z,75.57
2022-12-09T07:35:29.073Z,70.13
2022-12-09T07:40:32.787Z,64.30
2022-12-09T07:45:36.534Z,69.80
2022-12-09T07:50:40.131Z,64.43
2022-12-09T07:55:43.407Z,65.97
2022-12-09T08:00:46.587Z,66.60
2022-12-09T08:05:51.872Z,61.13
2022-12-09T08:10:55.636Z,71.30
2022-12-09T08:16:04.579Z,63.40
2022-12-09T08:21:11.060Z,60.90
2022-12-09T08:26:16.856Z,54.27
2022-12-09T08:31:23.306Z,51.30
2022-12-09T08:36:28.693Z,57.90
2022-12-09T08:41:39.168Z,57.00
2022-12-09T08:46:46.381Z,66.23
2022-12-09T08:51:52.649Z,61.67
2022-12-09T08:56:57.023Z,52.23
2022-12-09T09:02:01.024Z,40.57
2022-12-09T09:07:05.067Z,40.57
2022-12-09T09:12:08.982Z,47.50
2022-12-09T09:17:12.803Z,47.23
2022-12-09T09:22:17.683Z,40.87
2022-12-09T09:27:21.866Z,55.43
2022-12-09T09:32:26.555Z,44.50
2022-12-09T09:37:32.329Z,49.77
2022-12-09T09:42:49.339Z,49.30
2022-12-09T09:47:58.605Z,46.53
2022-12-09T09:53:24.164Z,53.17
2022-12-09T09:58:43.519Z,63.50
2022-12-09T10:04:00.360Z,63.03
2022-12-09T10:09:37.472Z,56.30
2022-12-09T10:15:36.696Z,55.93
2022-12-09T10:20:42.414Z,62.50
2022-12-09T10:25:57.810Z,67.40
2022-12-09T10:31:03.327Z,58.30
2022-12-09T10:36:20.101Z,68.80
2022-12-09T10:42:06.969Z,58.60
2022-12-09T10:47:30.155Z,64.23
2022-12-09T10:52:45.350Z,60.73
2022-12-09T10:57:49.267Z,59.50
2022-12-09T11:02:55.643Z,58.07
2022-12-09T11:07:59.635Z,67.97
2022-12-09T11:13:08.998Z,59.43
2022-12-09T11:18:45.348Z,64.97
2022-12-09T11:24:02.885Z,64.10
2022-12-09T11:29:19.653Z,56.27
2022-12-09T11:34:26.421Z,50.70
2022-12-09T11:39:35.778Z,49.10
2022-12-09T11:44:39.416Z,56.93
2022-12-09T11:49:49.992Z,60.23
2022-12-09T11:55:20.379Z,56.43
2022-12-09T12:00:26.063Z,56.63
2022-12-09T12:05:50.936Z,53.57
2022-12-09T12:11:15.330Z,48.63
2022-12-09T12:16:22.517Z,50.23
2022-12-09T12:21:52.971Z,52.97
2022-12-09T12:27:22.870Z,58.83
2022-12-09T12:33:33.094Z,50.60
2022-12-09T12:38:31.866Z,58.30
2022-12-09T12:44:02.766Z,55.83
2022-12-09T12:49:25.051Z,66.47
2022-12-09T12:54:57.018Z,59.20
2022-12-09T13:00:11.478Z,64.07
2022-12-09T13:05:34.790Z,66.53
2022-12-09T13:10:43.197Z,56.97
2022-12-09T13:15:51.952Z,66.83
2022-12-09T13:20:57.920Z,59.40
2022-12-09T13:26:28.636Z,54.07
2022-12-09T13:31:35.038Z,55.80
2022-12-09T13:36:43.202Z,57.17
2022-12-09T13:42:05.211Z,49.33
2022-12-09T13:47:16.602Z,47.13
2022-12-09T13:52:48.236Z,48.60
2022-12-09T13:58:12.816Z,45.87
2022-12-09T14:03:31.945Z,44.47
2022-12-09T14:08:41.414Z,47.27
2022-12-09T14:13:44.757Z,47.27
2022-12-09T14:18:48.327Z,41.90
2022-12-09T14:24:30.638Z,49.47
2022-12-09T14:29:52.472Z,44.80
2022-12-09T14:35:10.136Z,49.23
2022-12-09T14:40:16.191Z,44.23
2022-12-09T14:45:29.878Z,44.97
2022-12-09T14:50:38.524Z,45.37
2022-12-09T14:55:42.557Z,43.60
2022-12-09T15:00:48.158Z,48.90
2022-12-09T15:06:00.045Z,48.37
2022-12-09T15:11:20.758Z,46.60
2022-12-09T15:16:26.624Z,48.23
2022-12-09T15:21:34.339Z,61.10
2022-12-09T15:26:42.529Z,67.03
2022-12-09T15:31:51.858Z,64.50
2022-12-09T15:37:05.068Z,55.23
2022-12-09T15:42:23.923Z,62.60
2022-12-09T15:47:38.086Z,72.37
2022-12-09T15:53:25.946Z,66.57
2022-12-09T15:58:40.541Z,74.53
2022-12-09T16:03:51.780Z,61.97
2022-12-09T16:08:58.183Z,72.97
2022-12-09T16:14:08.259Z,72.43
2022-12-09T16:19:33.303Z,73.23
2022-12-09T16:25:14.710Z,53.50
2022-12-09T16:30:26.916Z,54.20
2022-12-09T16:35:46.860Z,56.60
2022-12-09T16:40:58.586Z,59.73
2022-12-09T16:46:30.879Z,75.27
2022-12-09T16:51:38.201Z,68.43
2022-12-09T16:56:48.587Z,59.00
2022-12-09T17:01:53.586Z,61.37
2022-12-09T17:06:58.674Z,56.37
2022-12-09T17:12:03.216Z,59.10
2022-12-09T17:17:08.098Z,57.77
2022-12-09T17:22:13.271Z,53.23
2022-12-09T17:27:20.065Z,56.40
2022-12-09T17:32:28.474Z,62.00
2022-12-09T17:37:33.187Z,73.83
2022-12-09T17:42:39.876Z,68.17
2022-12-09T17:47:44.156Z,65.53
2022-12-09T17:52:48.933Z,62.20
2022-12-09T17:57:54.352Z,55.40
2022-12-09T18:02:59.158Z,64.30
2022-12-09T18:08:04.213Z,59.17
2022-12-09T18:13:08.499Z,68.63
2022-12-09T18:18:12.612Z,61.73
2022-12-09T18:23:18.217Z,57.43
2022-12-09T18:28:22.057Z,53.37
2022-12-09T18:33:26.679Z,56.20
2022-12-09T18:38:30.258Z,53.20
2022-12-09T18:43:37.645Z,50.30
2022-12-09T18:48:42.617Z,55.60
2022-12-09T18:53:48.641Z,53.27
2022-12-09T18:59:09.954Z,64.37
2022-12-09T19:04:17.633Z,55.87
2022-12-09T19:09:25.657Z,51.27
2022-12-09T19:14:31.604Z,52.70
2022-12-09T19:19:39.532Z,56.13
2022-12-09T19:24:47.976Z,56.10
2022-12-09T19:29:54.130Z,53.47
2022-12-09T19:34:59.458Z,57.93
2022-12-09T19:40:08.153Z,56.37
2022-12-09T19:45:14.813Z,57.13
2022-12-09T19:50:22.178Z,56.10
2022-12-09T19:55:28.587Z,64.27
2022-12-09T20:00:39.710Z,81.20
2022-12-09T20:06:07.486Z,79.27
2022-12-09T20:11:20.498Z,74.17
2022-12-09T20:16:28.944Z,65.57
2022-12-09T20:21:34.424Z,72.67
2022-12-09T20:26:41.180Z,64.90
2022-12-09T20:31:47.390Z,75.10
2022-12-09T20:36:53.617Z,62.40
2022-12-09T20:42:03.617Z,75.50
2022-12-09T20:47:10.113Z,67.37
2022-12-09T20:52:15.266Z,63.03
2022-12-09T20:57:20.816Z,67.37
2022-12-09T21:02:25.857Z,73.20
2022-12-09T21:07:31.155Z,68.50
2022-12-09T21:12:36.218Z,70.27
2022-12-09T21:17:51.876Z,74.33
2022-12-09T21:23:25.158Z,74.33
2022-12-09T21:28:23.711Z,80.60
2022-12-09T21:33:28.680Z,86.97
2022-12-09T21:38:34.600Z,75.23
2022-12-09T21:43:41.199Z,74.13
2022-12-09T21:48:51.756Z,67.67
2022-12-09T21:53:56.520Z,73.00
2022-12-09T21:59:01.177Z,70.17
2022-12-09T22:04:07.838Z,80.00
2022-12-09T22:09:12.818Z,81.20
2022-12-09T22:14:17.220Z,69.93
2022-12-09T22:19:22.440Z,80.60
2022-12-09T22:24:28.019Z,78.10
2022-12-09T22:29:31.633Z,65.43
2022-12-09T22:34:35.579Z,69.47
2022-12-09T22:39:39.017Z,68.20
2022-12-09T22:44:42.777Z,82.93
2022-12-09T22:49:47.113Z,71.13
2022-12-09T22:54:51.231Z,75.10
2022-12-09T22:59:55.563Z,71.60
2022-12-09T23:04:59.158Z,71.17
2022-12-09T23:10:03.517Z,63.90
2022-12-09T23:15:07.769Z,76.60
2022-12-09T23:20:11.382Z,54.60
2022-12-09T23:25:15.576Z,69.30
2022-12-09T23:30:19.422Z,76.77
2022-12-09T23:35:22.697Z,69.53
2022-12-09T23:40:26.352Z,70.60
2022-12-09T23:45:29.937Z,79.07
2022-12-09T23:50:33.417Z,64.10
2022-12-09T23:55:42.714Z,63.47
